MAL7095 CYSB-CYYZ
Flight info
| Callsign | MAL7095 |
|---|---|
| Flight time | N/A |
| Altitude | 9000 |
| Route | IRKIM DUVOS4 |
| Aircraft | C208/L-SDFGRZ/C |
Departure
| Time | 2026-04-28 19:20 |
|---|---|
| Airport | Sudbury Airport (CYSB) |
Arrival
| Time | N/A |
|---|---|
| Airport | Toronto Pearson International Airport (CYYZ) |
| Time | Latitude | Longitude | Altitude | Speed | Heading |
|---|---|---|---|---|---|
| 2026-04-28 19:06 | 46.62781 | -80.79124 | 1148 ft | 0 kts | 194° |
| 2026-04-28 19:16 | 46.62777 | -80.79127 | 1138 ft | 4 kts | 221° |
| 2026-04-28 19:16 | 46.62754 | -80.79182 | 1148 ft | 10 kts | 228° |
| 2026-04-28 19:16 | 46.62765 | -80.79313 | 1147 ft | 11 kts | 258° |
| 2026-04-28 19:17 | 46.62741 | -80.79345 | 1147 ft | 0 kts | 206° |
| 2026-04-28 19:17 | 46.62715 | -80.79364 | 1147 ft | 12 kts | 208° |
| 2026-04-28 19:17 | 46.62673 | -80.79435 | 1145 ft | 17 kts | 269° |
| 2026-04-28 19:18 | 46.62727 | -80.79664 | 1143 ft | 16 kts | 328° |
| 2026-04-28 19:18 | 46.62817 | -80.79614 | 1146 ft | 14 kts | 27° |
| 2026-04-28 19:18 | 46.62929 | -80.79529 | 1146 ft | 25 kts | 30° |
| 2026-04-28 19:18 | 46.63115 | -80.79374 | 1150 ft | 32 kts | 30° |
| 2026-04-28 19:19 | 46.63249 | -80.79262 | 1150 ft | 24 kts | 30° |
| 2026-04-28 19:19 | 46.63308 | -80.79231 | 1151 ft | 5 kts | 193° |
| 2026-04-28 19:19 | 46.63245 | -80.79280 | 1150 ft | 21 kts | 210° |
| 2026-04-28 19:19 | 46.62923 | -80.79545 | 1169 ft | 81 kts | 213° |
| 2026-04-28 19:20 | 46.62396 | -80.79997 | 1459 ft | 93 kts | 214° |
| 2026-04-28 19:20 | 46.61831 | -80.80564 | 1668 ft | 103 kts | 215° |
| 2026-04-28 19:20 | 46.61245 | -80.81217 | 1863 ft | 109 kts | 218° |
| 2026-04-28 19:20 | 46.60663 | -80.81968 | 2194 ft | 113 kts | 220° |
| 2026-04-28 19:21 | 46.60095 | -80.82729 | 2575 ft | 110 kts | 221° |
| 2026-04-28 19:21 | 46.59557 | -80.83536 | 2948 ft | 109 kts | 223° |
| 2026-04-28 19:21 | 46.59025 | -80.84263 | 3382 ft | 107 kts | 220° |
| 2026-04-28 19:21 | 46.58480 | -80.84976 | 3895 ft | 97 kts | 217° |
| 2026-04-28 19:22 | 46.57938 | -80.85373 | 4375 ft | 94 kts | 189° |
| 2026-04-28 19:22 | 46.57699 | -80.85377 | 4359 ft | 109 kts | 178° |
| 2026-04-28 19:22 | 46.56505 | -80.84341 | 4796 ft | 118 kts | 139° |
| 2026-04-28 19:22 | 46.55993 | -80.83364 | 4913 ft | 128 kts | 135° |
| 2026-04-28 19:23 | 46.55454 | -80.82367 | 5236 ft | 125 kts | 137° |
| 2026-04-28 19:23 | 46.54881 | -80.81401 | 5516 ft | 125 kts | 140° |
| 2026-04-28 19:23 | 46.54278 | -80.80502 | 5818 ft | 123 kts | 144° |
| 2026-04-28 19:23 | 46.53640 | -80.79678 | 6106 ft | 122 kts | 148° |
| 2026-04-28 19:24 | 46.52982 | -80.78933 | 6416 ft | 117 kts | 151° |
| 2026-04-28 19:24 | 46.52570 | -80.78433 | 6635 ft | 118 kts | 141° |
| 2026-04-28 19:24 | 46.51999 | -80.77617 | 6975 ft | 112 kts | 153° |
| 2026-04-28 19:24 | 46.51316 | -80.77180 | 7310 ft | 105 kts | 175° |
| 2026-04-28 19:25 | 46.50601 | -80.76957 | 7647 ft | 104 kts | 174° |
| 2026-04-28 19:25 | 46.49892 | -80.76752 | 7994 ft | 104 kts | 176° |
| 2026-04-28 19:25 | 46.49184 | -80.76563 | 8348 ft | 103 kts | 177° |
| 2026-04-28 19:25 | 46.48478 | -80.76382 | 8702 ft | 102 kts | 178° |
| 2026-04-28 19:26 | 46.47773 | -80.76207 | 9009 ft | 107 kts | 179° |
| 2026-04-28 19:26 | 46.46953 | -80.76017 | 9031 ft | 130 kts | 178° |
| 2026-04-28 19:26 | 46.46008 | -80.75792 | 9030 ft | 144 kts | 177° |
| 2026-04-28 19:26 | 46.45006 | -80.75540 | 9029 ft | 146 kts | 176° |
| 2026-04-28 19:27 | 46.44010 | -80.75291 | 9025 ft | 148 kts | 177° |
| 2026-04-28 19:27 | 46.42988 | -80.75039 | 9030 ft | 149 kts | 177° |
| 2026-04-28 19:27 | 46.41963 | -80.74786 | 9025 ft | 147 kts | 177° |
| 2026-04-28 19:27 | 46.40974 | -80.74540 | 9022 ft | 144 kts | 177° |
| 2026-04-28 19:28 | 46.39990 | -80.74301 | 9021 ft | 143 kts | 177° |
| 2026-04-28 19:28 | 46.39006 | -80.74063 | 9015 ft | 144 kts | 178° |
| 2026-04-28 19:28 | 46.38022 | -80.73823 | 9020 ft | 143 kts | 178° |
| 2026-04-28 19:28 | 46.37039 | -80.73584 | 9019 ft | 143 kts | 178° |
| 2026-04-28 19:29 | 46.36061 | -80.73345 | 9021 ft | 142 kts | 178° |
| 2026-04-28 19:29 | 46.35411 | -80.73189 | 9023 ft | 144 kts | 178° |
| 2026-04-28 19:29 | 46.34080 | -80.72869 | 9033 ft | 148 kts | 178° |
| 2026-04-28 19:29 | 46.33061 | -80.72622 | 9041 ft | 149 kts | 178° |
| 2026-04-28 19:30 | 46.32034 | -80.72372 | 9041 ft | 149 kts | 178° |
| 2026-04-28 19:30 | 46.31009 | -80.72122 | 9045 ft | 149 kts | 178° |
| 2026-04-28 19:30 | 46.29985 | -80.71874 | 9044 ft | 149 kts | 178° |
| 2026-04-28 19:30 | 46.28959 | -80.71623 | 9047 ft | 149 kts | 178° |
| 2026-04-28 19:31 | 46.27935 | -80.71375 | 9050 ft | 149 kts | 178° |
| 2026-04-28 19:31 | 46.26911 | -80.71128 | 9051 ft | 149 kts | 178° |
| 2026-04-28 19:31 | 46.25885 | -80.70880 | 9050 ft | 150 kts | 178° |
| 2026-04-28 19:31 | 46.24860 | -80.70631 | 9053 ft | 149 kts | 178° |
| 2026-04-28 19:32 | 46.23835 | -80.70382 | 9052 ft | 149 kts | 178° |
| 2026-04-28 19:32 | 46.22810 | -80.70135 | 9052 ft | 149 kts | 178° |
| 2026-04-28 19:32 | 46.21787 | -80.69886 | 9062 ft | 149 kts | 178° |
| 2026-04-28 19:32 | 46.20767 | -80.69641 | 9059 ft | 148 kts | 178° |
| 2026-04-28 19:33 | 46.19763 | -80.69398 | 9058 ft | 148 kts | 179° |
| 2026-04-28 19:33 | 46.18747 | -80.69153 | 9055 ft | 148 kts | 179° |
| 2026-04-28 19:33 | 46.17725 | -80.68906 | 9061 ft | 149 kts | 179° |
| 2026-04-28 19:33 | 46.16703 | -80.68658 | 9057 ft | 148 kts | 179° |
| 2026-04-28 19:34 | 46.15683 | -80.68413 | 9065 ft | 149 kts | 179° |
| 2026-04-28 19:34 | 46.14664 | -80.68167 | 9056 ft | 148 kts | 179° |
| 2026-04-28 19:34 | 46.13646 | -80.67921 | 9068 ft | 149 kts | 179° |
| 2026-04-28 19:34 | 46.12624 | -80.67676 | 9065 ft | 149 kts | 179° |
| 2026-04-28 19:35 | 46.11605 | -80.67429 | 9064 ft | 148 kts | 179° |
| 2026-04-28 19:35 | 46.10591 | -80.67185 | 9068 ft | 148 kts | 179° |
| 2026-04-28 19:35 | 46.09573 | -80.66940 | 9074 ft | 148 kts | 179° |
| 2026-04-28 19:35 | 46.08555 | -80.66693 | 9071 ft | 148 kts | 179° |
| 2026-04-28 19:36 | 46.07537 | -80.66451 | 9076 ft | 149 kts | 179° |
| 2026-04-28 19:36 | 46.06513 | -80.66201 | 9073 ft | 150 kts | 178° |
| 2026-04-28 19:36 | 46.05478 | -80.65934 | 9075 ft | 152 kts | 178° |
| 2026-04-28 19:36 | 46.04452 | -80.65681 | 9073 ft | 151 kts | 179° |
| 2026-04-28 19:37 | 46.03418 | -80.65433 | 9072 ft | 150 kts | 179° |
| 2026-04-28 19:37 | 46.02723 | -80.65267 | 9075 ft | 150 kts | 179° |
| 2026-04-28 19:37 | 46.01366 | -80.64941 | 9080 ft | 149 kts | 179° |
| 2026-04-28 19:37 | 46.00340 | -80.64697 | 9077 ft | 149 kts | 179° |
| 2026-04-28 19:38 | 45.99316 | -80.64452 | 9077 ft | 149 kts | 179° |
| 2026-04-28 19:38 | 45.98291 | -80.64206 | 9079 ft | 149 kts | 179° |
| 2026-04-28 19:38 | 45.97267 | -80.63959 | 9088 ft | 149 kts | 179° |
| 2026-04-28 19:38 | 45.96260 | -80.63719 | 9086 ft | 148 kts | 179° |
| 2026-04-28 19:39 | 45.95242 | -80.63475 | 9090 ft | 149 kts | 179° |
| 2026-04-28 19:39 | 45.94218 | -80.63231 | 9088 ft | 149 kts | 180° |
| 2026-04-28 19:39 | 45.93195 | -80.62986 | 9085 ft | 149 kts | 180° |
| 2026-04-28 19:39 | 45.92173 | -80.62740 | 9086 ft | 149 kts | 180° |
| 2026-04-28 19:40 | 45.91155 | -80.62497 | 9088 ft | 148 kts | 180° |
| 2026-04-28 19:40 | 45.90139 | -80.62255 | 9087 ft | 148 kts | 180° |
| 2026-04-28 19:40 | 45.89118 | -80.62010 | 9095 ft | 149 kts | 180° |
| 2026-04-28 19:40 | 45.88097 | -80.61766 | 9095 ft | 149 kts | 180° |
| 2026-04-28 19:41 | 45.87077 | -80.61522 | 9094 ft | 149 kts | 180° |
| 2026-04-28 19:41 | 45.86050 | -80.61278 | 9096 ft | 150 kts | 180° |
| 2026-04-28 19:41 | 45.85022 | -80.61033 | 9094 ft | 150 kts | 180° |
| 2026-04-28 19:41 | 45.83990 | -80.60786 | 9101 ft | 150 kts | 180° |
| 2026-04-28 19:42 | 45.82952 | -80.60539 | 9103 ft | 151 kts | 180° |
| 2026-04-28 19:42 | 45.81916 | -80.60292 | 9098 ft | 151 kts | 180° |
| 2026-04-28 19:42 | 45.80878 | -80.60044 | 9100 ft | 151 kts | 180° |
| 2026-04-28 19:42 | 45.80189 | -80.59880 | 9106 ft | 152 kts | 180° |
| 2026-04-28 19:43 | 45.78797 | -80.59550 | 9101 ft | 151 kts | 180° |
| 2026-04-28 19:43 | 45.77760 | -80.59301 | 9102 ft | 151 kts | 180° |
| 2026-04-28 19:43 | 45.76742 | -80.59059 | 9107 ft | 150 kts | 180° |
| 2026-04-28 19:43 | 45.75706 | -80.58813 | 9107 ft | 150 kts | 180° |
| 2026-04-28 19:44 | 45.74672 | -80.58567 | 9105 ft | 150 kts | 180° |
| 2026-04-28 19:44 | 45.73641 | -80.58322 | 9108 ft | 150 kts | 180° |
| 2026-04-28 19:44 | 45.72612 | -80.58078 | 9110 ft | 149 kts | 181° |
| 2026-04-28 19:44 | 45.71587 | -80.57834 | 9112 ft | 149 kts | 181° |
| 2026-04-28 19:45 | 45.70559 | -80.57591 | 9109 ft | 150 kts | 181° |
| 2026-04-28 19:45 | 45.69531 | -80.57346 | 9106 ft | 150 kts | 180° |
| 2026-04-28 19:45 | 45.68501 | -80.57103 | 9119 ft | 150 kts | 181° |
| 2026-04-28 19:45 | 45.67474 | -80.56859 | 9119 ft | 150 kts | 181° |
| 2026-04-28 19:46 | 45.66445 | -80.56615 | 9118 ft | 150 kts | 181° |
| 2026-04-28 19:46 | 45.65421 | -80.56372 | 9118 ft | 149 kts | 181° |
| 2026-04-28 19:46 | 45.64408 | -80.56133 | 9120 ft | 149 kts | 181° |
| 2026-04-28 19:46 | 45.63383 | -80.55890 | 9118 ft | 150 kts | 181° |
| 2026-04-28 19:47 | 45.62354 | -80.55647 | 9118 ft | 150 kts | 181° |
| 2026-04-28 19:47 | 45.61322 | -80.55402 | 9119 ft | 150 kts | 181° |
| 2026-04-28 19:47 | 45.60292 | -80.55160 | 9118 ft | 150 kts | 181° |
| 2026-04-28 19:47 | 45.59264 | -80.54916 | 9119 ft | 150 kts | 181° |
| 2026-04-28 19:48 | 45.58239 | -80.54672 | 9117 ft | 149 kts | 181° |
| 2026-04-28 19:48 | 45.57209 | -80.54430 | 9123 ft | 149 kts | 181° |
| 2026-04-28 19:48 | 45.56182 | -80.54187 | 9124 ft | 150 kts | 181° |
| 2026-04-28 19:48 | 45.55166 | -80.53948 | 9120 ft | 150 kts | 181° |
| 2026-04-28 19:49 | 45.54141 | -80.53706 | 9129 ft | 149 kts | 182° |
| 2026-04-28 19:49 | 45.53113 | -80.53464 | 9127 ft | 149 kts | 181° |
| 2026-04-28 19:49 | 45.52084 | -80.53221 | 9125 ft | 150 kts | 182° |
| 2026-04-28 19:49 | 45.51055 | -80.52978 | 9126 ft | 149 kts | 182° |
| 2026-04-28 19:50 | 45.49001 | -80.52494 | 9126 ft | 150 kts | 182° |
| 2026-04-28 19:50 | 45.47974 | -80.52253 | 9127 ft | 150 kts | 182° |
| 2026-04-28 19:50 | 45.46944 | -80.52010 | 9127 ft | 150 kts | 182° |
| 2026-04-28 19:51 | 45.45917 | -80.51768 | 9125 ft | 150 kts | 182° |
| 2026-04-28 19:51 | 45.44887 | -80.51526 | 9126 ft | 150 kts | 182° |
| 2026-04-28 19:51 | 45.43868 | -80.51287 | 9129 ft | 150 kts | 182° |
| 2026-04-28 19:51 | 45.42838 | -80.51044 | 9127 ft | 150 kts | 182° |
| 2026-04-28 19:52 | 45.41811 | -80.50803 | 9126 ft | 150 kts | 182° |
| 2026-04-28 19:52 | 45.40782 | -80.50562 | 9125 ft | 150 kts | 182° |
| 2026-04-28 19:52 | 45.39755 | -80.50320 | 9131 ft | 149 kts | 182° |
| 2026-04-28 19:52 | 45.38728 | -80.50079 | 9133 ft | 149 kts | 182° |
| 2026-04-28 19:53 | 45.37703 | -80.49839 | 9132 ft | 149 kts | 182° |
| 2026-04-28 19:53 | 45.36679 | -80.49599 | 9131 ft | 149 kts | 182° |
| 2026-04-28 19:53 | 45.35652 | -80.49358 | 9131 ft | 150 kts | 182° |
| 2026-04-28 19:53 | 45.34635 | -80.49120 | 9130 ft | 150 kts | 183° |
| 2026-04-28 19:54 | 45.33593 | -80.48875 | 9129 ft | 150 kts | 182° |
| 2026-04-28 19:54 | 45.32576 | -80.48638 | 9130 ft | 150 kts | 182° |
| 2026-04-28 19:54 | 45.31546 | -80.48396 | 9133 ft | 150 kts | 183° |
| 2026-04-28 19:54 | 45.30513 | -80.48155 | 9134 ft | 151 kts | 182° |
| 2026-04-28 19:55 | 45.29475 | -80.47913 | 9132 ft | 151 kts | 183° |
| 2026-04-28 19:55 | 45.28438 | -80.47669 | 9132 ft | 151 kts | 183° |
| 2026-04-28 19:55 | 45.27400 | -80.47427 | 9129 ft | 151 kts | 183° |
| 2026-04-28 19:55 | 45.26362 | -80.47185 | 9134 ft | 151 kts | 183° |
| 2026-04-28 19:56 | 45.25321 | -80.46942 | 9131 ft | 151 kts | 183° |
| 2026-04-28 19:56 | 45.24285 | -80.46699 | 9128 ft | 151 kts | 183° |
| 2026-04-28 19:56 | 45.23261 | -80.46460 | 9137 ft | 151 kts | 183° |
| 2026-04-28 19:56 | 45.22228 | -80.46220 | 9135 ft | 151 kts | 183° |
| 2026-04-28 19:57 | 45.21192 | -80.45978 | 9133 ft | 151 kts | 183° |
| 2026-04-28 19:57 | 45.20158 | -80.45737 | 9131 ft | 151 kts | 183° |
| 2026-04-28 19:57 | 45.19119 | -80.45495 | 9135 ft | 151 kts | 183° |
| 2026-04-28 19:57 | 45.18080 | -80.45253 | 9136 ft | 151 kts | 183° |
| 2026-04-28 19:58 | 45.17039 | -80.45011 | 9134 ft | 152 kts | 183° |
| 2026-04-28 19:58 | 45.15993 | -80.44767 | 9139 ft | 152 kts | 183° |
| 2026-04-28 19:58 | 45.14944 | -80.44523 | 9135 ft | 153 kts | 183° |
| 2026-04-28 19:58 | 45.13898 | -80.44279 | 9134 ft | 152 kts | 183° |
| 2026-04-28 19:59 | 45.12854 | -80.44036 | 9137 ft | 152 kts | 183° |
| 2026-04-28 19:59 | 45.11813 | -80.43794 | 9131 ft | 151 kts | 184° |
| 2026-04-28 19:59 | 45.10773 | -80.43553 | 9138 ft | 152 kts | 184° |
| 2026-04-28 19:59 | 45.09743 | -80.43315 | 9135 ft | 152 kts | 184° |
| 2026-04-28 20:00 | 45.08700 | -80.43072 | 9138 ft | 152 kts | 184° |
| 2026-04-28 20:00 | 45.07655 | -80.42830 | 9134 ft | 152 kts | 184° |
| 2026-04-28 20:00 | 45.06612 | -80.42587 | 9139 ft | 152 kts | 184° |
| 2026-04-28 20:00 | 45.05571 | -80.42346 | 9137 ft | 152 kts | 184° |
| 2026-04-28 20:01 | 45.04530 | -80.42105 | 9136 ft | 151 kts | 184° |
| 2026-04-28 20:01 | 45.03489 | -80.41863 | 9133 ft | 152 kts | 184° |
| 2026-04-28 20:01 | 45.02446 | -80.41622 | 9139 ft | 152 kts | 184° |
| 2026-04-28 20:01 | 45.01404 | -80.41381 | 9138 ft | 152 kts | 184° |
| 2026-04-28 20:02 | 45.00360 | -80.41139 | 9136 ft | 152 kts | 184° |
| 2026-04-28 20:02 | 44.99320 | -80.40899 | 9133 ft | 152 kts | 184° |
| 2026-04-28 20:02 | 44.98279 | -80.40657 | 9141 ft | 151 kts | 184° |
| 2026-04-28 20:02 | 44.97237 | -80.40417 | 9137 ft | 152 kts | 184° |
| 2026-04-28 20:03 | 44.96196 | -80.40176 | 9137 ft | 152 kts | 184° |
| 2026-04-28 20:03 | 44.95154 | -80.39935 | 9135 ft | 152 kts | 184° |
| 2026-04-28 20:03 | 44.94112 | -80.39695 | 9131 ft | 152 kts | 184° |
| 2026-04-28 20:03 | 44.93081 | -80.39457 | 9136 ft | 152 kts | 184° |
| 2026-04-28 20:04 | 44.92038 | -80.39216 | 9138 ft | 152 kts | 184° |
| 2026-04-28 20:04 | 44.90992 | -80.38975 | 9130 ft | 152 kts | 184° |
| 2026-04-28 20:04 | 44.89945 | -80.38733 | 9133 ft | 153 kts | 184° |
| 2026-04-28 20:04 | 44.88896 | -80.38492 | 9130 ft | 153 kts | 184° |
| 2026-04-28 20:05 | 44.87845 | -80.38249 | 9131 ft | 153 kts | 184° |
| 2026-04-28 20:05 | 44.86795 | -80.38007 | 9132 ft | 153 kts | 184° |
| 2026-04-28 20:05 | 44.85744 | -80.37765 | 9132 ft | 153 kts | 184° |
| 2026-04-28 20:05 | 44.84695 | -80.37523 | 9128 ft | 153 kts | 184° |
| 2026-04-28 20:06 | 44.83646 | -80.37282 | 9128 ft | 153 kts | 184° |
| 2026-04-28 20:06 | 44.82595 | -80.36999 | 9130 ft | 155 kts | 181° |
| 2026-04-28 20:06 | 44.81541 | -80.36727 | 9129 ft | 154 kts | 183° |
| 2026-04-28 20:06 | 44.80487 | -80.36462 | 9126 ft | 154 kts | 183° |
| 2026-04-28 20:07 | 44.79448 | -80.36315 | 9121 ft | 141 kts | 202° |
| 2026-04-28 20:07 | 44.78917 | -80.36721 | 9128 ft | 127 kts | 233° |
| 2026-04-28 20:07 | 44.78707 | -80.38283 | 9134 ft | 124 kts | 257° |
| 2026-04-28 20:07 | 44.78153 | -80.39182 | 9145 ft | 135 kts | 211° |
| 2026-04-28 20:08 | 44.77148 | -80.39077 | 9146 ft | 161 kts | 169° |
| 2026-04-28 20:08 | 44.76167 | -80.38193 | 9145 ft | 171 kts | 155° |
| 2026-04-28 20:08 | 44.75214 | -80.37192 | 9145 ft | 171 kts | 155° |
| 2026-04-28 20:08 | 44.74256 | -80.36193 | 9146 ft | 171 kts | 155° |
| 2026-04-28 20:09 | 44.73318 | -80.35134 | 9146 ft | 172 kts | 154° |
| 2026-04-28 20:09 | 44.72326 | -80.34351 | 9140 ft | 159 kts | 175° |
| 2026-04-28 20:09 | 44.71271 | -80.34030 | 9138 ft | 154 kts | 183° |
| 2026-04-28 20:09 | 44.70218 | -80.33766 | 9138 ft | 154 kts | 182° |
| 2026-04-28 20:10 | 44.69167 | -80.33497 | 9140 ft | 153 kts | 182° |
| 2026-04-28 20:10 | 44.68119 | -80.33223 | 9138 ft | 153 kts | 182° |
| 2026-04-28 20:10 | 44.67068 | -80.32950 | 9136 ft | 154 kts | 182° |
| 2026-04-28 20:10 | 44.66358 | -80.32764 | 9136 ft | 154 kts | 182° |
| 2026-04-28 20:11 | 44.65301 | -80.32489 | 9136 ft | 155 kts | 182° |
| 2026-04-28 20:11 | 44.64241 | -80.32211 | 9135 ft | 155 kts | 182° |
| 2026-04-28 20:11 | 44.63193 | -80.31938 | 9133 ft | 155 kts | 182° |
| 2026-04-28 20:11 | 44.62135 | -80.31660 | 9136 ft | 154 kts | 182° |
| 2026-04-28 20:12 | 44.61078 | -80.31385 | 9131 ft | 155 kts | 182° |
| 2026-04-28 20:12 | 44.60021 | -80.31109 | 9130 ft | 154 kts | 182° |
| 2026-04-28 20:12 | 44.58962 | -80.30832 | 9135 ft | 155 kts | 182° |
| 2026-04-28 20:12 | 44.57907 | -80.30558 | 9137 ft | 155 kts | 182° |
| 2026-04-28 20:13 | 44.56845 | -80.30281 | 9134 ft | 155 kts | 182° |
| 2026-04-28 20:13 | 44.55783 | -80.30005 | 9136 ft | 155 kts | 182° |
| 2026-04-28 20:13 | 44.54721 | -80.29728 | 9132 ft | 155 kts | 182° |
| 2026-04-28 20:13 | 44.53663 | -80.29453 | 9133 ft | 155 kts | 182° |
| 2026-04-28 20:14 | 44.52604 | -80.29177 | 9131 ft | 155 kts | 181° |
| 2026-04-28 20:14 | 44.51543 | -80.28900 | 9133 ft | 155 kts | 182° |
| 2026-04-28 20:14 | 44.50482 | -80.28626 | 9131 ft | 155 kts | 181° |
| 2026-04-28 20:14 | 44.49421 | -80.28349 | 9136 ft | 155 kts | 181° |
| 2026-04-28 20:15 | 44.48360 | -80.28074 | 9135 ft | 155 kts | 182° |
| 2026-04-28 20:15 | 44.47313 | -80.27801 | 9133 ft | 155 kts | 181° |
| 2026-04-28 20:15 | 44.46251 | -80.27526 | 9133 ft | 155 kts | 181° |
| 2026-04-28 20:15 | 44.45177 | -80.27248 | 9133 ft | 154 kts | 180° |
| 2026-04-28 20:16 | 44.44143 | -80.26977 | 9136 ft | 153 kts | 181° |
| 2026-04-28 20:16 | 44.43097 | -80.26708 | 9136 ft | 153 kts | 182° |
| 2026-04-28 20:16 | 44.42047 | -80.26437 | 9139 ft | 154 kts | 182° |
| 2026-04-28 20:16 | 44.40987 | -80.26161 | 9142 ft | 156 kts | 181° |
| 2026-04-28 20:17 | 44.39921 | -80.25886 | 9136 ft | 155 kts | 182° |
| 2026-04-28 20:17 | 44.38860 | -80.25610 | 9139 ft | 155 kts | 182° |
| 2026-04-28 20:17 | 44.37795 | -80.25334 | 9136 ft | 156 kts | 181° |
| 2026-04-28 20:17 | 44.36731 | -80.25060 | 9140 ft | 156 kts | 181° |
| 2026-04-28 20:18 | 44.35664 | -80.24783 | 9140 ft | 156 kts | 181° |
| 2026-04-28 20:18 | 44.34959 | -80.24600 | 9138 ft | 156 kts | 181° |
| 2026-04-28 20:18 | 44.33530 | -80.24231 | 9141 ft | 156 kts | 182° |
| 2026-04-28 20:18 | 44.32464 | -80.23955 | 9138 ft | 156 kts | 181° |
| 2026-04-28 20:19 | 44.31395 | -80.23681 | 9139 ft | 156 kts | 181° |
| 2026-04-28 20:19 | 44.30322 | -80.23403 | 9139 ft | 157 kts | 181° |
| 2026-04-28 20:19 | 44.29263 | -80.23129 | 9142 ft | 156 kts | 181° |
| 2026-04-28 20:19 | 44.28196 | -80.22854 | 9139 ft | 156 kts | 182° |
| 2026-04-28 20:20 | 44.27128 | -80.22578 | 9143 ft | 156 kts | 181° |
| 2026-04-28 20:20 | 44.26059 | -80.22304 | 9146 ft | 156 kts | 181° |
| 2026-04-28 20:20 | 44.24987 | -80.22027 | 9144 ft | 156 kts | 181° |
| 2026-04-28 20:20 | 44.23916 | -80.21750 | 9140 ft | 156 kts | 181° |
| 2026-04-28 20:21 | 44.22849 | -80.21477 | 9143 ft | 156 kts | 181° |
| 2026-04-28 20:21 | 44.21781 | -80.21202 | 9144 ft | 156 kts | 181° |
| 2026-04-28 20:21 | 44.20712 | -80.20926 | 9147 ft | 156 kts | 181° |
| 2026-04-28 20:21 | 44.19642 | -80.20651 | 9145 ft | 156 kts | 181° |
| 2026-04-28 20:22 | 44.18573 | -80.20375 | 9149 ft | 156 kts | 181° |
| 2026-04-28 20:22 | 44.17526 | -80.19847 | 9151 ft | 171 kts | 156° |
| 2026-04-28 20:22 | 44.16625 | -80.18710 | 9152 ft | 176 kts | 147° |
| 2026-04-28 20:22 | 44.15737 | -80.17582 | 9152 ft | 174 kts | 148° |
| 2026-04-28 20:23 | 44.14835 | -80.16453 | 9152 ft | 175 kts | 148° |
| 2026-04-28 20:23 | 44.13928 | -80.15318 | 9154 ft | 175 kts | 149° |
| 2026-04-28 20:23 | 44.13021 | -80.14182 | 9155 ft | 176 kts | 148° |
| 2026-04-28 20:23 | 44.12109 | -80.13039 | 9156 ft | 176 kts | 148° |
| 2026-04-28 20:24 | 44.11201 | -80.11901 | 9156 ft | 175 kts | 149° |
| 2026-04-28 20:24 | 44.10296 | -80.10766 | 9153 ft | 175 kts | 149° |
| 2026-04-28 20:24 | 44.09390 | -80.09635 | 9157 ft | 175 kts | 149° |
| 2026-04-28 20:24 | 44.08484 | -80.08502 | 9152 ft | 175 kts | 148° |
| 2026-04-28 20:25 | 44.07580 | -80.07370 | 9153 ft | 175 kts | 148° |
| 2026-04-28 20:25 | 44.06673 | -80.06240 | 9160 ft | 175 kts | 148° |
| 2026-04-28 20:25 | 44.05766 | -80.05105 | 9162 ft | 175 kts | 148° |
| 2026-04-28 20:25 | 44.04871 | -80.03985 | 9160 ft | 175 kts | 148° |
| 2026-04-28 20:26 | 44.03961 | -80.02852 | 9157 ft | 176 kts | 148° |
| 2026-04-28 20:26 | 44.03050 | -80.01714 | 9156 ft | 176 kts | 148° |
| 2026-04-28 20:26 | 44.02138 | -80.00579 | 9154 ft | 176 kts | 149° |
| 2026-04-28 20:26 | 44.01188 | -79.99572 | 9159 ft | 169 kts | 159° |
| 2026-04-28 20:27 | 44.00187 | -79.98711 | 9158 ft | 169 kts | 159° |
| 2026-04-28 20:27 | 43.99193 | -79.97836 | 9161 ft | 170 kts | 159° |
| 2026-04-28 20:27 | 43.98198 | -79.96952 | 9164 ft | 169 kts | 159° |
| 2026-04-28 20:27 | 43.97207 | -79.96072 | 9158 ft | 169 kts | 159° |
| 2026-04-28 20:28 | 43.96215 | -79.95192 | 9162 ft | 169 kts | 159° |
| 2026-04-28 20:28 | 43.95224 | -79.94315 | 9161 ft | 169 kts | 159° |
| 2026-04-28 20:28 | 43.94227 | -79.93432 | 9162 ft | 169 kts | 159° |
| 2026-04-28 20:28 | 43.93238 | -79.92556 | 9163 ft | 168 kts | 159° |
| 2026-04-28 20:29 | 43.92250 | -79.91683 | 9168 ft | 167 kts | 159° |
| 2026-04-28 20:29 | 43.91272 | -79.90817 | 9168 ft | 167 kts | 159° |
| 2026-04-28 20:29 | 43.90289 | -79.89950 | 9167 ft | 167 kts | 159° |
| 2026-04-28 20:29 | 43.89307 | -79.89084 | 9170 ft | 168 kts | 159° |
| 2026-04-28 20:30 | 43.88319 | -79.88210 | 9164 ft | 168 kts | 159° |
| 2026-04-28 20:30 | 43.87335 | -79.87340 | 9167 ft | 168 kts | 159° |
| 2026-04-28 20:30 | 43.86344 | -79.86467 | 9170 ft | 169 kts | 159° |
| 2026-04-28 20:30 | 43.85350 | -79.85591 | 9169 ft | 169 kts | 159° |
| 2026-04-28 20:31 | 43.84370 | -79.84672 | 9169 ft | 174 kts | 150° |
| 2026-04-28 20:31 | 43.83488 | -79.83497 | 9169 ft | 177 kts | 146° |
| 2026-04-28 20:31 | 43.82605 | -79.82308 | 9171 ft | 177 kts | 147° |
| 2026-04-28 20:31 | 43.81716 | -79.81138 | 9168 ft | 176 kts | 147° |
| 2026-04-28 20:32 | 43.80830 | -79.79973 | 9168 ft | 176 kts | 147° |
| 2026-04-28 20:32 | 43.79942 | -79.78809 | 9169 ft | 175 kts | 147° |
| 2026-04-28 20:32 | 43.79058 | -79.77647 | 9170 ft | 175 kts | 147° |
| 2026-04-28 20:32 | 43.78175 | -79.76487 | 9171 ft | 175 kts | 147° |
| 2026-04-28 20:33 | 43.77298 | -79.75336 | 9173 ft | 176 kts | 147° |
| 2026-04-28 20:33 | 43.76463 | -79.74076 | 9171 ft | 184 kts | 130° |
| 2026-04-28 20:33 | 43.76072 | -79.72346 | 9171 ft | 194 kts | 98° |
| 2026-04-28 20:33 | 43.76295 | -79.70500 | 9119 ft | 198 kts | 66° |
| 2026-04-28 20:34 | 43.77092 | -79.68990 | 8854 ft | 192 kts | 39° |
| 2026-04-28 20:34 | 43.78013 | -79.67707 | 8604 ft | 183 kts | 40° |
| 2026-04-28 20:34 | 43.78883 | -79.66454 | 8346 ft | 178 kts | 40° |
| 2026-04-28 20:34 | 43.79733 | -79.65220 | 8085 ft | 176 kts | 41° |
| 2026-04-28 20:35 | 43.80312 | -79.63753 | 7820 ft | 179 kts | 75° |
| 2026-04-28 20:35 | 43.80593 | -79.62085 | 7571 ft | 177 kts | 77° |
| 2026-04-28 20:35 | 43.80916 | -79.60450 | 7327 ft | 174 kts | 73° |